Colony, Wyoming
Current Conditions -  °F | °C
As of 6:15 AM on Tuesday 21 Oct 2014 (Local Time) from KW43 Reporting Station
Clear Clear  
Wind Chill: 63°   Ceiling: Unl
Heat Index: 63°   Visibility: 10mi
Dew Point: 34°   Wind: 17mph
Humidity: 34%   Direction: 200°SSW
Pressure: 29.84"   Gusts: 22mph
Location:  44.87°N, 104.15°W
Report Text: KW43 211215Z AUTO 20015G19KT 10SM CLR 17/01 A2984 RMK AO2
Loading
Personal Weather Stations






























Interactive Weather Map
Tropical Storm Tracking
New forecast layout! Learn more

10-Day Weather Forecast

Advertisements
Track Severe Weather on mobile